Time;durP1;ratioP1;P1;durP2;ratioP2;P2;SDS_P1;SDS_P2;PMS_P1;PMS_P2;Temp;Humidity;BMP_temperature;BMP_pressure;BME280_temperature;BME280_humidity;BME280_pressure;Samples;Min_cycle;Max_cycle;Signal;HPM_P1;HPM_P2
2023/07/27 00:01:39;;;;;;;4.63;3.00;;;;;;;;;;5042530;28;20057;-62
2023/07/27 00:04:05;;;;;;;8.85;3.95;;;;;;;;;;5040939;28;20054;-67
2023/07/27 00:06:31;;;;;;;4.10;2.95;;;;;;;;;;5042558;28;20144;-68
2023/07/27 00:08:59;;;;;;;3.97;2.67;;;;;;;;;;5043270;28;20057;-68
2023/07/27 00:11:25;;;;;;;3.63;2.67;;;;;;;;;;5041690;28;20056;-63
2023/07/27 00:13:51;;;;;;;6.60;2.65;;;;;;;;;;5041315;28;20603;-67
2023/07/27 00:16:18;;;;;;;3.88;2.15;;;;;;;;;;5042015;28;20249;-65
2023/07/27 00:18:44;;;;;;;6.55;2.88;;;;;;;;;;5042321;28;20057;-62
2023/07/27 00:21:10;;;;;;;3.70;2.30;;;;;;;;;;5040372;28;20053;-68
2023/07/27 00:23:37;;;;;;;5.32;2.30;;;;;;;;;;5041996;28;20622;-68
2023/07/27 00:26:03;;;;;;;4.10;2.97;;;;;;;;;;5039062;28;20169;-63
2023/07/27 00:28:30;;;;;;;2.97;2.30;;;;;;;;;;5030678;28;20148;-65
2023/07/27 00:30:56;;;;;;;5.07;2.67;;;;;;;;;;5041883;28;20503;-68
2023/07/27 00:33:23;;;;;;;4.30;2.20;;;;;;;;;;5042775;28;20132;-63
2023/07/27 00:35:56;;;;;;;3.92;2.70;;;;;;;;;;5042405;28;20145;-68
2023/07/27 00:38:22;;;;;;;3.00;2.10;;;;;;;;;;5041866;28;20049;-67
2023/07/27 00:40:49;;;;;;;4.45;2.67;;;;;;;;;;5040008;28;20056;-67
2023/07/27 00:43:16;;;;;;;6.07;3.15;;;;;;;;;;5041996;28;20056;-66
2023/07/27 00:45:42;;;;;;;4.28;2.75;;;;;;;;;;5041435;28;20108;-63
2023/07/27 00:48:09;;;;;;;6.25;3.25;;;;;;;;;;5042295;28;20163;-67
2023/07/27 00:50:36;;;;;;;4.00;3.10;;;;;;;;;;5039857;28;20057;-67
2023/07/27 00:53:04;;;;;;;5.80;3.40;;;;;;;;;;5042160;28;20073;-66
2023/07/27 00:55:31;;;;;;;4.47;3.30;;;;;;;;;;5041512;28;20058;-65
2023/07/27 00:57:58;;;;;;;4.32;3.47;;;;;;;;;;5041737;28;20053;-65
2023/07/27 01:00:25;;;;;;;4.32;3.45;;;;;;;;;;5041724;28;20080;-64
2023/07/27 01:02:51;;;;;;;7.38;3.83;;;;;;;;;;5041429;28;20057;-62
2023/07/27 01:05:18;;;;;;;8.02;3.85;;;;;;;;;;5041950;28;20076;-66
2023/07/27 01:07:44;;;;;;;6.32;4.07;;;;;;;;;;5040966;28;20060;-66
2023/07/27 01:10:11;;;;;;;6.47;3.92;;;;;;;;;;5039701;28;20145;-61
2023/07/27 01:12:49;;;;;;;7.40;4.35;;;;;;;;;;5029079;28;20065;-63
2023/07/27 01:15:17;;;;;;;5.60;3.60;;;;;;;;;;5041717;28;20057;-67
2023/07/27 01:17:44;;;;;;;6.55;4.05;;;;;;;;;;5022603;28;20156;-68
2023/07/27 01:20:10;;;;;;;6.20;3.30;;;;;;;;;;5037715;28;20629;-67
2023/07/27 01:22:53;;;;;;;8.73;4.40;;;;;;;;;;5038441;28;20056;-62
2023/07/27 01:25:19;;;;;;;8.57;3.97;;;;;;;;;;5040428;28;20079;-65
2023/07/27 01:27:46;;;;;;;7.63;4.38;;;;;;;;;;5043017;28;20139;-67
2023/07/27 01:30:21;;;;;;;6.07;3.50;;;;;;;;;;5038740;28;20148;-67
2023/07/27 01:32:50;;;;;;;5.97;3.50;;;;;;;;;;5040550;28;20053;-66
2023/07/27 01:35:18;;;;;;;5.32;3.58;;;;;;;;;;5040421;28;20136;-60
2023/07/27 01:37:45;;;;;;;4.40;3.15;;;;;;;;;;5037097;28;20050;-63
2023/07/27 01:40:13;;;;;;;4.47;3.22;;;;;;;;;;5041665;28;20083;-63
2023/07/27 01:42:40;;;;;;;8.60;3.83;;;;;;;;;;5042014;28;20053;-67
2023/07/27 01:45:08;;;;;;;7.40;3.85;;;;;;;;;;5042239;28;20523;-61
2023/07/27 01:47:38;;;;;;;5.93;3.10;;;;;;;;;;5042460;28;20061;-62
2023/07/27 01:50:05;;;;;;;5.20;2.95;;;;;;;;;;5042240;28;20058;-61
2023/07/27 01:52:32;;;;;;;5.63;2.83;;;;;;;;;;5040595;28;20049;-63
2023/07/27 01:54:59;;;;;;;7.00;3.70;;;;;;;;;;5041038;28;20217;-66
2023/07/27 01:57:26;;;;;;;5.90;3.25;;;;;;;;;;5041325;28;20053;-66
2023/07/27 01:59:53;;;;;;;4.53;3.03;;;;;;;;;;5040771;28;20054;-65
2023/07/27 02:02:20;;;;;;;3.53;2.80;;;;;;;;;;5040943;28;20053;-64
2023/07/27 02:04:48;;;;;;;4.38;2.20;;;;;;;;;;5040960;28;20057;-62
2023/07/27 02:07:16;;;;;;;3.72;2.53;;;;;;;;;;5039606;28;20045;-65
2023/07/27 02:09:43;;;;;;;4.85;2.78;;;;;;;;;;5040724;28;20058;-65
2023/07/27 02:12:17;;;;;;;3.90;2.50;;;;;;;;;;5041759;28;20054;-64
2023/07/27 02:14:55;;;;;;;4.68;2.80;;;;;;;;;;5041300;28;20512;-65
2023/07/27 02:17:29;;;;;;;4.45;2.85;;;;;;;;;;5041193;28;20055;-65
2023/07/27 02:19:56;;;;;;;5.65;2.70;;;;;;;;;;5039404;28;20178;-65
2023/07/27 02:22:23;;;;;;;4.53;2.90;;;;;;;;;;5040367;28;20548;-65
2023/07/27 02:24:50;;;;;;;4.93;2.83;;;;;;;;;;5044849;28;20156;-64
2023/07/27 02:27:16;;;;;;;7.35;2.97;;;;;;;;;;5044566;28;20050;-64
2023/07/27 02:29:43;;;;;;;4.05;3.03;;;;;;;;;;5043966;28;20057;-64
2023/07/27 02:32:09;;;;;;;4.20;3.05;;;;;;;;;;5043486;28;20045;-58
2023/07/27 02:34:36;;;;;;;5.07;3.25;;;;;;;;;;5044430;28;20144;-59
2023/07/27 02:37:03;;;;;;;4.07;3.13;;;;;;;;;;5032152;28;20050;-60
2023/07/27 02:39:29;;;;;;;4.20;2.85;;;;;;;;;;5037410;28;20049;-66
2023/07/27 02:41:56;;;;;;;3.15;2.45;;;;;;;;;;5042562;28;20103;-65
2023/07/27 02:44:22;;;;;;;4.78;2.95;;;;;;;;;;5042315;28;20066;-62
2023/07/27 02:46:49;;;;;;;4.63;2.50;;;;;;;;;;5044958;28;20054;-64
2023/07/27 02:49:15;;;;;;;4.97;2.50;;;;;;;;;;5043363;28;20472;-66
2023/07/27 02:51:41;;;;;;;3.80;2.10;;;;;;;;;;5043996;28;20123;-63
2023/07/27 02:54:08;;;;;;;3.22;2.03;;;;;;;;;;5043793;28;20580;-64
2023/07/27 02:56:35;;;;;;;3.60;2.33;;;;;;;;;;5042907;28;20053;-65
2023/07/27 02:59:01;;;;;;;3.53;2.78;;;;;;;;;;5042510;28;20071;-64
2023/07/27 03:01:28;;;;;;;3.60;2.53;;;;;;;;;;5041855;28;20049;-62
2023/07/27 03:03:54;;;;;;;3.67;2.78;;;;;;;;;;5042090;28;20512;-64
2023/07/27 03:06:21;;;;;;;2.80;2.47;;;;;;;;;;5043583;28;20567;-65
2023/07/27 03:08:47;;;;;;;4.18;2.88;;;;;;;;;;5043644;28;20053;-63
2023/07/27 03:11:14;;;;;;;4.72;3.20;;;;;;;;;;5042785;28;20057;-65
2023/07/27 03:13:40;;;;;;;3.65;2.50;;;;;;;;;;5043022;28;20132;-60
2023/07/27 03:16:06;;;;;;;4.20;2.90;;;;;;;;;;5043185;28;20578;-63
2023/07/27 03:18:33;;;;;;;5.35;3.55;;;;;;;;;;5042691;28;20046;-61
2023/07/27 03:21:03;;;;;;;4.45;3.40;;;;;;;;;;5043059;28;20582;-65
2023/07/27 03:23:30;;;;;;;4.10;3.22;;;;;;;;;;5037016;28;20634;-65
2023/07/27 03:25:56;;;;;;;6.93;3.20;;;;;;;;;;5030933;28;20561;-64
2023/07/27 03:28:23;;;;;;;4.20;3.22;;;;;;;;;;5043657;28;20053;-63
2023/07/27 03:30:49;;;;;;;4.97;3.78;;;;;;;;;;5042398;28;20482;-65
2023/07/27 03:33:16;;;;;;;5.95;3.10;;;;;;;;;;5041064;28;20586;-65
2023/07/27 03:35:42;;;;;;;4.40;3.30;;;;;;;;;;5043552;28;20053;-65
2023/07/27 03:38:09;;;;;;;5.00;3.08;;;;;;;;;;5043767;28;20056;-65
2023/07/27 03:40:35;;;;;;;4.07;3.00;;;;;;;;;;5046006;28;20060;-64
2023/07/27 03:43:01;;;;;;;6.20;3.42;;;;;;;;;;5041034;28;20049;-63
2023/07/27 03:45:28;;;;;;;4.80;2.88;;;;;;;;;;5041506;28;20503;-64
2023/07/27 03:47:54;;;;;;;3.92;2.90;;;;;;;;;;5043142;28;20126;-66
2023/07/27 03:50:21;;;;;;;7.72;4.28;;;;;;;;;;5041237;28;20054;-60
2023/07/27 03:52:48;;;;;;;5.93;3.90;;;;;;;;;;5042010;28;20058;-66
2023/07/27 03:55:18;;;;;;;5.05;3.20;;;;;;;;;;5042824;28;20057;-64
2023/07/27 03:57:46;;;;;;;4.82;3.67;;;;;;;;;;5042159;28;20160;-65
2023/07/27 04:00:13;;;;;;;4.22;3.35;;;;;;;;;;5042784;28;20639;-65
2023/07/27 04:02:39;;;;;;;5.15;3.85;;;;;;;;;;5038944;28;20148;-63
2023/07/27 04:05:06;;;;;;;6.25;4.22;;;;;;;;;;5041714;28;20527;-65
2023/07/27 04:07:33;;;;;;;6.60;4.80;;;;;;;;;;5042255;28;20057;-63
2023/07/27 04:09:59;;;;;;;5.88;4.78;;;;;;;;;;5042966;28;20143;-62
2023/07/27 04:12:26;;;;;;;6.13;5.00;;;;;;;;;;5039945;28;20053;-65
2023/07/27 04:14:52;;;;;;;8.65;5.78;;;;;;;;;;5041955;28;20092;-61
2023/07/27 04:17:18;;;;;;;8.25;5.32;;;;;;;;;;5041825;28;20058;-65
2023/07/27 04:19:45;;;;;;;7.95;5.70;;;;;;;;;;5041725;28;20585;-65
2023/07/27 04:22:11;;;;;;;7.60;5.80;;;;;;;;;;5042349;28;20053;-62
2023/07/27 04:24:38;;;;;;;11.05;6.88;;;;;;;;;;5041381;28;20131;-65
2023/07/27 04:27:05;;;;;;;9.90;6.97;;;;;;;;;;5042348;28;20542;-65
2023/07/27 04:29:31;;;;;;;10.27;7.50;;;;;;;;;;5041675;28;20490;-65
2023/07/27 04:31:58;;;;;;;14.48;8.07;;;;;;;;;;5042539;28;20049;-62
2023/07/27 04:34:25;;;;;;;13.73;8.38;;;;;;;;;;5041927;28;20108;-62
2023/07/27 04:36:51;;;;;;;15.35;7.97;;;;;;;;;;5041861;28;20440;-65
2023/07/27 04:39:17;;;;;;;12.75;7.82;;;;;;;;;;5041345;28;20049;-63
2023/07/27 04:41:44;;;;;;;15.35;9.15;;;;;;;;;;5040665;28;20060;-63
2023/07/27 04:44:10;;;;;;;12.35;8.77;;;;;;;;;;5041237;28;20095;-64
2023/07/27 04:46:37;;;;;;;11.27;8.70;;;;;;;;;;5043060;28;20057;-65
2023/07/27 04:49:06;;;;;;;13.98;9.52;;;;;;;;;;5039615;28;20534;-65
2023/07/27 04:51:33;;;;;;;13.02;9.38;;;;;;;;;;5039121;28;20621;-65
2023/07/27 04:54:00;;;;;;;14.15;9.73;;;;;;;;;;5038637;28;21044;-61
2023/07/27 04:56:27;;;;;;;13.18;8.63;;;;;;;;;;5041733;28;20132;-64
2023/07/27 04:58:54;;;;;;;14.30;9.35;;;;;;;;;;5041108;28;20080;-60
2023/07/27 05:01:20;;;;;;;12.93;8.75;;;;;;;;;;5038725;28;20053;-62
2023/07/27 05:03:47;;;;;;;12.57;8.23;;;;;;;;;;5041636;28;20050;-64
2023/07/27 05:06:13;;;;;;;12.27;9.57;;;;;;;;;;5037640;28;20141;-65
2023/07/27 05:08:40;;;;;;;10.57;7.82;;;;;;;;;;5040496;28;20057;-65
2023/07/27 05:11:06;;;;;;;13.32;9.25;;;;;;;;;;5033156;28;20061;-62
2023/07/27 05:13:33;;;;;;;12.43;7.97;;;;;;;;;;5038864;28;20057;-66
2023/07/27 05:16:00;;;;;;;11.05;7.35;;;;;;;;;;5038129;28;20073;-65
2023/07/27 05:18:27;;;;;;;11.50;7.80;;;;;;;;;;5040032;28;20589;-65
2023/07/27 05:20:53;;;;;;;9.38;6.80;;;;;;;;;;5041948;28;20053;-64
2023/07/27 05:23:20;;;;;;;10.60;7.00;;;;;;;;;;5041535;28;20543;-64
2023/07/27 05:25:47;;;;;;;11.32;5.55;;;;;;;;;;5028358;28;20057;-65
2023/07/27 05:28:13;;;;;;;7.53;6.43;;;;;;;;;;5039998;28;20057;-63
2023/07/27 05:30:41;;;;;;;9.55;6.90;;;;;;;;;;5040345;28;20513;-60
2023/07/27 05:33:08;;;;;;;7.55;5.63;;;;;;;;;;5041304;28;20060;-61
2023/07/27 05:35:34;;;;;;;8.80;6.80;;;;;;;;;;5030468;28;20054;-64
2023/07/27 05:38:00;;;;;;;7.07;5.53;;;;;;;;;;5042144;28;20061;-65
2023/07/27 05:40:27;;;;;;;9.27;6.68;;;;;;;;;;5040761;28;20064;-61
2023/07/27 05:42:53;;;;;;;8.95;5.90;;;;;;;;;;5042322;28;20080;-65
2023/07/27 05:45:20;;;;;;;7.82;5.70;;;;;;;;;;5040257;28;20168;-65
2023/07/27 05:47:47;;;;;;;9.10;5.93;;;;;;;;;;5042320;28;20589;-64
2023/07/27 05:50:13;;;;;;;9.68;5.72;;;;;;;;;;5039378;28;20060;-62
2023/07/27 05:52:40;;;;;;;7.10;5.53;;;;;;;;;;5039083;28;20548;-62
2023/07/27 05:55:06;;;;;;;6.03;5.25;;;;;;;;;;5031860;28;20120;-64
2023/07/27 05:57:33;;;;;;;7.43;5.40;;;;;;;;;;5030532;28;20162;-61
2023/07/27 06:00:00;;;;;;;6.57;4.72;;;;;;;;;;5030267;28;20064;-61
2023/07/27 06:02:32;;;;;;;6.65;4.47;;;;;;;;;;5030029;28;20876;-64
2023/07/27 06:04:59;;;;;;;4.57;4.03;;;;;;;;;;5030099;28;20181;-65
2023/07/27 06:07:26;;;;;;;6.07;4.10;;;;;;;;;;5035658;28;20058;-62
2023/07/27 06:09:52;;;;;;;4.28;3.80;;;;;;;;;;5041066;28;20080;-61
2023/07/27 06:12:19;;;;;;;5.50;4.15;;;;;;;;;;5041406;28;20112;-64
2023/07/27 06:14:45;;;;;;;4.47;3.97;;;;;;;;;;5049064;28;20064;-64
2023/07/27 06:17:12;;;;;;;5.90;3.50;;;;;;;;;;5044187;28;20143;-61
2023/07/27 06:19:38;;;;;;;6.03;3.60;;;;;;;;;;5047184;28;20108;-63
2023/07/27 06:22:05;;;;;;;3.65;3.28;;;;;;;;;;5045042;28;20111;-64
2023/07/27 06:24:31;;;;;;;4.57;3.47;;;;;;;;;;5044954;28;20140;-64
2023/07/27 06:26:58;;;;;;;5.32;3.75;;;;;;;;;;5043961;28;20057;-60
2023/07/27 06:29:25;;;;;;;5.45;3.78;;;;;;;;;;5043495;28;20050;-65
2023/07/27 06:31:51;;;;;;;3.90;3.45;;;;;;;;;;5046991;28;20498;-64
2023/07/27 06:34:18;;;;;;;4.95;3.13;;;;;;;;;;5039009;28;20508;-63
2023/07/27 06:36:44;;;;;;;3.47;3.05;;;;;;;;;;5036347;28;20573;-70
2023/07/27 06:39:10;;;;;;;5.03;3.63;;;;;;;;;;5039342;28;20131;-63
2023/07/27 06:41:37;;;;;;;3.97;3.13;;;;;;;;;;5037938;28;20054;-63
2023/07/27 06:44:04;;;;;;;4.00;3.00;;;;;;;;;;5044706;28;20115;-62
2023/07/27 06:46:31;;;;;;;3.25;2.90;;;;;;;;;;5042859;28;20174;-63
2023/07/27 06:48:58;;;;;;;3.83;3.08;;;;;;;;;;5043265;28;20565;-62
2023/07/27 06:51:25;;;;;;;4.25;2.80;;;;;;;;;;5052627;28;20057;-64
2023/07/27 06:53:51;;;;;;;4.50;3.10;;;;;;;;;;5044251;28;20172;-63
2023/07/27 06:56:17;;;;;;;3.80;2.80;;;;;;;;;;5034759;28;20049;-62
2023/07/27 06:58:44;;;;;;;3.15;2.78;;;;;;;;;;5039926;28;20479;-61
2023/07/27 07:01:10;;;;;;;3.40;2.42;;;;;;;;;;5042129;28;20053;-62
2023/07/27 07:03:37;;;;;;;3.97;2.58;;;;;;;;;;5043833;28;20176;-61
2023/07/27 07:06:03;;;;;;;2.65;2.38;;;;;;;;;;5041687;28;20081;-61
2023/07/27 07:08:30;;;;;;;2.75;2.55;;;;;;;;;;5029191;28;20053;-61
2023/07/27 07:10:56;;;;;;;3.25;2.50;;;;;;;;;;5039762;28;20145;-58
2023/07/27 07:13:23;;;;;;;2.70;2.40;;;;;;;;;;5042484;28;20831;-60
2023/07/27 07:15:49;;;;;;;2.78;2.17;;;;;;;;;;5035761;28;20058;-61
2023/07/27 07:18:16;;;;;;;2.83;2.53;;;;;;;;;;5046050;28;20057;-62
2023/07/27 07:20:42;;;;;;;4.60;2.78;;;;;;;;;;5043569;28;20139;-62
2023/07/27 07:23:09;;;;;;;2.53;2.33;;;;;;;;;;5043914;28;20049;-62
2023/07/27 07:25:35;;;;;;;15.13;2.88;;;;;;;;;;5038791;28;20050;-60
2023/07/27 07:28:02;;;;;;;2.47;2.28;;;;;;;;;;5033557;28;20115;-60
2023/07/27 07:30:28;;;;;;;2.55;2.35;;;;;;;;;;5044837;28;20507;-62
2023/07/27 07:32:54;;;;;;;3.85;2.70;;;;;;;;;;5041506;28;20059;-63
2023/07/27 07:35:21;;;;;;;2.53;2.33;;;;;;;;;;5042351;28;20056;-60
2023/07/27 07:37:49;;;;;;;2.50;2.30;;;;;;;;;;5040621;28;20504;-62
2023/07/27 07:40:17;;;;;;;2.60;2.40;;;;;;;;;;5038499;28;20053;-61
2023/07/27 07:42:43;;;;;;;2.47;2.28;;;;;;;;;;5052446;28;20112;-60
2023/07/27 07:45:10;;;;;;;2.55;2.35;;;;;;;;;;5040111;28;20064;-58
2023/07/27 07:47:37;;;;;;;2.80;2.30;;;;;;;;;;5039884;28;20079;-62
2023/07/27 07:50:03;;;;;;;2.15;2.03;;;;;;;;;;5031636;28;20428;-59
2023/07/27 07:52:30;;;;;;;2.60;2.40;;;;;;;;;;5043159;28;20107;-60
2023/07/27 07:54:57;;;;;;;2.20;2.10;;;;;;;;;;5043210;28;20060;-60
2023/07/27 07:57:23;;;;;;;2.40;2.20;;;;;;;;;;5042669;28;20053;-61
2023/07/27 07:59:50;;;;;;;2.47;2.28;;;;;;;;;;5041703;28;20644;-61
2023/07/27 08:02:16;;;;;;;2.47;2.28;;;;;;;;;;5055533;28;20053;-59
2023/07/27 08:04:43;;;;;;;2.63;2.20;;;;;;;;;;5047753;28;20087;-63
2023/07/27 08:07:09;;;;;;;2.30;2.10;;;;;;;;;;5058862;28;20053;-61
2023/07/27 08:09:36;;;;;;;2.03;1.83;;;;;;;;;;5049862;28;20135;-60
2023/07/27 08:12:03;;;;;;;2.15;2.00;;;;;;;;;;5043970;28;20072;-60
2023/07/27 08:14:31;;;;;;;2.22;1.98;;;;;;;;;;5042473;28;20144;-60
2023/07/27 08:16:58;;;;;;;1.88;1.77;;;;;;;;;;5035875;28;20134;-63
2023/07/27 08:19:25;;;;;;;2.05;1.95;;;;;;;;;;5033265;28;20062;-61
2023/07/27 08:21:52;;;;;;;2.20;1.85;;;;;;;;;;5054607;28;20571;-59
2023/07/27 08:24:18;;;;;;;1.85;1.60;;;;;;;;;;5039783;28;20531;-60
2023/07/27 08:26:48;;;;;;;7.65;1.75;;;;;;;;;;5041083;28;20060;-62
2023/07/27 08:29:14;;;;;;;3.35;2.30;;;;;;;;;;5037670;28;20096;-60
2023/07/27 08:31:40;;;;;;;3.05;1.70;;;;;;;;;;5035882;28;20562;-63
2023/07/27 08:34:07;;;;;;;1.63;1.52;;;;;;;;;;5029484;28;20068;-62
2023/07/27 08:36:33;;;;;;;1.45;1.35;;;;;;;;;;5054937;28;20526;-58
2023/07/27 08:39:01;;;;;;;1.65;1.55;;;;;;;;;;5043419;28;20053;-61
2023/07/27 08:41:28;;;;;;;1.40;1.30;;;;;;;;;;5051484;28;20107;-59
2023/07/27 08:43:54;;;;;;;1.20;1.10;;;;;;;;;;5043093;28;20128;-63
2023/07/27 08:46:21;;;;;;;1.05;1.05;;;;;;;;;;5042621;28;20085;-61
2023/07/27 08:48:49;;;;;;;1.27;1.20;;;;;;;;;;5042925;28;20053;-61
2023/07/27 08:51:15;;;;;;;3.03;0.90;;;;;;;;;;5041646;28;20061;-61
2023/07/27 08:53:42;;;;;;;1.50;1.20;;;;;;;;;;5040198;28;20155;-59
2023/07/27 08:56:08;;;;;;;2.10;1.33;;;;;;;;;;5046240;28;20056;-62
2023/07/27 08:58:36;;;;;;;1.27;1.17;;;;;;;;;;5043397;28;20064;-62
2023/07/27 09:01:02;;;;;;;1.13;1.10;;;;;;;;;;5042861;28;20046;-62
2023/07/27 09:03:29;;;;;;;1.02;1.00;;;;;;;;;;5037206;28;20076;-61
2023/07/27 09:05:57;;;;;;;1.50;1.20;;;;;;;;;;5040153;28;20590;-61
2023/07/27 09:08:26;;;;;;;1.95;1.48;;;;;;;;;;5041938;28;20053;-60
2023/07/27 09:10:52;;;;;;;2.10;1.90;;;;;;;;;;5041308;28;20543;-62
2023/07/27 09:13:19;;;;;;;2.20;2.00;;;;;;;;;;5039959;28;20064;-58
2023/07/27 09:15:45;;;;;;;1.95;1.77;;;;;;;;;;5030073;28;20049;-62
2023/07/27 09:18:13;;;;;;;2.50;2.08;;;;;;;;;;5040847;28;20061;-62
2023/07/27 09:20:40;;;;;;;2.13;1.90;;;;;;;;;;5043990;28;20053;-62
2023/07/27 09:23:07;;;;;;;2.17;1.95;;;;;;;;;;5046040;28;20472;-61
2023/07/27 09:25:34;;;;;;;4.85;2.38;;;;;;;;;;5040315;28;20065;-60
2023/07/27 09:28:00;;;;;;;3.60;2.30;;;;;;;;;;5042606;28;20141;-59
2023/07/27 09:30:26;;;;;;;2.45;2.22;;;;;;;;;;5054949;28;20053;-62
2023/07/27 09:32:53;;;;;;;2.00;1.80;;;;;;;;;;5038863;28;20171;-61
2023/07/27 09:35:20;;;;;;;3.78;2.00;;;;;;;;;;5041753;28;20140;-59
2023/07/27 09:37:48;;;;;;;2.28;2.00;;;;;;;;;;5041069;28;20161;-59
2023/07/27 09:40:16;;;;;;;2.42;2.05;;;;;;;;;;5036781;28;20068;-60
2023/07/27 09:42:42;;;;;;;1.92;1.25;;;;;;;;;;5049614;28;20049;-59
2023/07/27 09:45:09;;;;;;;1.55;1.45;;;;;;;;;;5042021;28;20049;-59
2023/07/27 09:47:35;;;;;;;0.93;0.93;;;;;;;;;;5043729;28;20140;-59
2023/07/27 09:50:02;;;;;;;1.73;1.08;;;;;;;;;;5041246;28;20062;-60
2023/07/27 09:52:29;;;;;;;1.35;0.80;;;;;;;;;;5071554;28;20096;-61
2023/07/27 09:54:57;;;;;;;1.13;1.05;;;;;;;;;;5040178;28;20342;-59
2023/07/27 09:57:24;;;;;;;1.00;1.00;;;;;;;;;;5040877;28;20131;-59
2023/07/27 09:59:51;;;;;;;0.70;0.70;;;;;;;;;;5041532;28;20524;-61
2023/07/27 10:02:17;;;;;;;1.70;0.70;;;;;;;;;;5046727;28;20048;-60
2023/07/27 10:04:56;;;;;;;1.00;0.70;;;;;;;;;;5040530;28;20299;-63
2023/07/27 10:07:25;;;;;;;0.80;0.80;;;;;;;;;;5040085;28;20053;-60
2023/07/27 10:10:16;;;;;;;0.65;0.60;;;;;;;;;;5040911;28;20058;-59
2023/07/27 10:12:42;;;;;;;0.60;0.60;;;;;;;;;;5039766;28;20140;-61
2023/07/27 10:15:19;;;;;;;1.27;0.70;;;;;;;;;;5042310;28;20631;-62
2023/07/27 10:17:48;;;;;;;0.60;0.60;;;;;;;;;;5041682;28;20064;-62
2023/07/27 10:20:24;;;;;;;0.60;0.60;;;;;;;;;;5040518;28;20053;-62
2023/07/27 10:22:52;;;;;;;3.20;0.70;;;;;;;;;;5034687;28;20085;-57
2023/07/27 10:25:19;;;;;;;0.75;0.75;;;;;;;;;;5038507;28;20104;-58
2023/07/27 10:27:55;;;;;;;0.80;0.80;;;;;;;;;;5044443;28;20050;-59
2023/07/27 10:30:22;;;;;;;1.00;0.93;;;;;;;;;;5042148;28;20064;-61
2023/07/27 10:33:15;;;;;;;1.38;0.70;;;;;;;;;;5037673;28;20060;-61
2023/07/27 10:36:02;;;;;;;1.30;1.10;;;;;;;;;;5031896;28;20050;-61
2023/07/27 10:38:30;;;;;;;0.63;0.63;;;;;;;;;;5039415;28;20050;-60
2023/07/27 10:41:10;;;;;;;0.85;0.85;;;;;;;;;;5038076;28;20231;-61
2023/07/27 10:43:36;;;;;;;0.80;0.70;;;;;;;;;;5053075;28;20049;-59
2023/07/27 10:46:20;;;;;;;0.88;0.77;;;;;;;;;;5044025;28;20243;-62
2023/07/27 10:48:57;;;;;;;0.75;0.75;;;;;;;;;;5038028;28;20539;-62
2023/07/27 10:51:25;;;;;;;2.13;1.00;;;;;;;;;;5053542;28;20180;-61
2023/07/27 10:53:52;;;;;;;0.77;0.77;;;;;;;;;;5049867;28;20546;-63
2023/07/27 10:56:19;;;;;;;1.50;1.00;;;;;;;;;;5049823;28;20149;-63
2023/07/27 10:58:46;;;;;;;1.40;1.30;;;;;;;;;;5044122;28;20534;-64
2023/07/27 11:01:13;;;;;;;1.70;1.58;;;;;;;;;;5041184;28;20054;-60
2023/07/27 11:03:40;;;;;;;3.92;1.40;;;;;;;;;;5043831;28;20053;-61
2023/07/27 11:06:07;;;;;;;2.03;1.40;;;;;;;;;;5041382;28;20053;-59
2023/07/27 11:08:35;;;;;;;1.52;1.30;;;;;;;;;;5027687;28;20542;-63
2023/07/27 11:11:16;;;;;;;2.08;1.30;;;;;;;;;;5039121;28;20515;-62
2023/07/27 11:13:42;;;;;;;1.52;1.42;;;;;;;;;;5042026;28;20088;-62
2023/07/27 11:16:09;;;;;;;1.33;1.23;;;;;;;;;;5035005;28;20578;-61
2023/07/27 11:18:36;;;;;;;1.10;1.00;;;;;;;;;;5034994;28;20062;-61
2023/07/27 11:21:02;;;;;;;1.85;1.73;;;;;;;;;;5043748;28;20491;-59
2023/07/27 11:23:30;;;;;;;1.05;0.95;;;;;;;;;;5042339;28;20437;-63
2023/07/27 11:25:56;;;;;;;1.05;1.05;;;;;;;;;;5043892;28;20053;-61
2023/07/27 11:28:23;;;;;;;1.58;1.15;;;;;;;;;;5060855;28;20053;-61
2023/07/27 11:30:52;;;;;;;1.10;1.10;;;;;;;;;;5043407;28;20049;-61
2023/07/27 11:33:20;;;;;;;1.20;1.10;;;;;;;;;;5040342;28;20104;-63
2023/07/27 11:35:47;;;;;;;1.60;1.50;;;;;;;;;;5042212;28;20059;-57
2023/07/27 11:38:14;;;;;;;1.40;1.27;;;;;;;;;;5041731;28;20065;-63
2023/07/27 11:40:44;;;;;;;1.73;1.63;;;;;;;;;;5043920;28;20053;-59
2023/07/27 11:43:10;;;;;;;1.88;1.77;;;;;;;;;;5052415;28;20505;-60
2023/07/27 11:45:38;;;;;;;2.60;1.83;;;;;;;;;;5043268;28;20075;-62
2023/07/27 11:48:04;;;;;;;2.47;1.98;;;;;;;;;;5043433;28;20168;-63
2023/07/27 11:50:33;;;;;;;2.75;2.22;;;;;;;;;;5043594;28;20072;-62
2023/07/27 11:53:02;;;;;;;3.25;2.95;;;;;;;;;;5041955;28;20056;-63
2023/07/27 11:55:35;;;;;;;2.65;2.45;;;;;;;;;;5040634;28;20532;-62
2023/07/27 11:58:08;;;;;;;2.90;2.60;;;;;;;;;;5043132;28;20120;-62
2023/07/27 12:00:38;;;;;;;2.67;2.47;;;;;;;;;;5041102;28;20500;-62
2023/07/27 12:03:05;;;;;;;4.93;2.75;;;;;;;;;;5052125;28;20524;-64
2023/07/27 12:05:51;;;;;;;2.70;2.50;;;;;;;;;;5044714;28;20112;-64
2023/07/27 12:08:18;;;;;;;2.50;2.30;;;;;;;;;;5046079;28;20049;-61
2023/07/27 12:10:51;;;;;;;3.53;2.38;;;;;;;;;;5042547;28;20131;-62
2023/07/27 12:13:22;;;;;;;3.72;2.40;;;;;;;;;;5041205;28;20061;-62
2023/07/27 12:16:08;;;;;;;3.40;2.60;;;;;;;;;;5043476;28;20099;-62
2023/07/27 12:18:37;;;;;;;2.88;2.15;;;;;;;;;;5044622;28;20093;-62
2023/07/27 12:21:07;;;;;;;2.85;2.20;;;;;;;;;;5039467;28;20115;-63
2023/07/27 12:23:36;;;;;;;3.92;2.10;;;;;;;;;;5042879;28;20538;-61
2023/07/27 12:26:03;;;;;;;2.40;2.10;;;;;;;;;;5041231;28;20081;-61
2023/07/27 12:28:32;;;;;;;2.10;1.50;;;;;;;;;;5051892;28;20111;-62
2023/07/27 12:31:01;;;;;;;2.00;1.90;;;;;;;;;;5043485;28;20111;-59
2023/07/27 12:33:31;;;;;;;2.00;1.90;;;;;;;;;;5043362;28;20220;-64
2023/07/27 12:35:57;;;;;;;4.35;1.80;;;;;;;;;;5043212;28;20057;-61
2023/07/27 12:38:25;;;;;;;4.10;1.52;;;;;;;;;;5041351;28;20054;-60
2023/07/27 12:40:54;;;;;;;1.83;1.50;;;;;;;;;;5042723;28;20152;-63
2023/07/27 12:43:22;;;;;;;1.58;1.48;;;;;;;;;;5042138;28;20057;-62
2023/07/27 12:45:50;;;;;;;1.85;1.35;;;;;;;;;;5042256;28;20064;-62
2023/07/27 12:48:16;;;;;;;1.73;1.50;;;;;;;;;;5042308;28;20057;-62
2023/07/27 12:50:42;;;;;;;1.70;1.45;;;;;;;;;;5043509;28;20439;-62
2023/07/27 12:53:09;;;;;;;4.40;1.50;;;;;;;;;;5041035;28;20129;-62
2023/07/27 12:55:36;;;;;;;1.75;1.65;;;;;;;;;;5043572;28;20058;-59
2023/07/27 12:58:02;;;;;;;1.10;1.10;;;;;;;;;;5042564;28;20107;-60
2023/07/27 13:00:29;;;;;;;1.17;1.08;;;;;;;;;;5042721;28;20140;-62
2023/07/27 13:02:56;;;;;;;0.93;0.93;;;;;;;;;;5041627;28;20160;-62
2023/07/27 13:05:22;;;;;;;0.80;0.80;;;;;;;;;;5041038;28;20500;-61
2023/07/27 13:07:48;;;;;;;1.00;1.00;;;;;;;;;;5053211;28;20057;-62
2023/07/27 13:10:17;;;;;;;1.25;0.80;;;;;;;;;;5039714;28;20081;-45
2023/07/27 13:12:44;;;;;;;3.45;1.15;;;;;;;;;;5042282;28;20061;-63
2023/07/27 13:15:10;;;;;;;1.00;0.90;;;;;;;;;;5041798;28;20060;-59
2023/07/27 13:17:37;;;;;;;1.00;1.00;;;;;;;;;;5042012;28;20049;-63
2023/07/27 13:20:06;;;;;;;2.58;0.90;;;;;;;;;;5041059;28;20057;-63
2023/07/27 13:22:33;;;;;;;0.90;0.90;;;;;;;;;;5042848;28;20480;-58
2023/07/27 13:24:59;;;;;;;1.38;0.93;;;;;;;;;;5040018;28;20053;-57
2023/07/27 13:27:26;;;;;;;1.08;0.98;;;;;;;;;;5034842;28;20049;-60
2023/07/27 13:29:52;;;;;;;1.17;1.08;;;;;;;;;;5040360;28;20056;-61
2023/07/27 13:32:19;;;;;;;2.63;1.10;;;;;;;;;;5023181;28;20571;-61
2023/07/27 13:34:46;;;;;;;1.17;1.08;;;;;;;;;;5040763;28;20079;-62
2023/07/27 13:37:12;;;;;;;1.88;1.48;;;;;;;;;;5041593;28;20049;-59
2023/07/27 13:39:39;;;;;;;1.25;1.05;;;;;;;;;;5038033;28;20144;-62
2023/07/27 13:42:06;;;;;;;1.30;1.05;;;;;;;;;;5025538;28;20076;-63
2023/07/27 13:44:32;;;;;;;1.38;1.27;;;;;;;;;;5042429;28;20572;-63
2023/07/27 13:46:59;;;;;;;3.75;2.10;;;;;;;;;;5041449;28;20649;-61
2023/07/27 13:49:25;;;;;;;6.43;3.00;;;;;;;;;;5040775;28;20562;-63
2023/07/27 13:51:52;;;;;;;4.70;2.30;;;;;;;;;;5041930;28;20060;-62
2023/07/27 13:54:18;;;;;;;3.70;2.35;;;;;;;;;;5041631;28;20075;-62
2023/07/27 13:56:45;;;;;;;4.55;2.75;;;;;;;;;;5039791;28;20054;-60
2023/07/27 13:59:11;;;;;;;4.57;2.38;;;;;;;;;;5041678;28;20057;-57
2023/07/27 14:01:38;;;;;;;3.38;2.35;;;;;;;;;;5041305;28;20111;-63
2023/07/27 14:04:04;;;;;;;5.78;2.60;;;;;;;;;;5040299;28;20344;-63
2023/07/27 14:06:31;;;;;;;4.45;2.78;;;;;;;;;;5040703;28;20730;-61
2023/07/27 14:08:58;;;;;;;3.85;2.50;;;;;;;;;;5055053;28;20061;-62
2023/07/27 14:11:25;;;;;;;4.47;2.42;;;;;;;;;;5039204;28;20470;-60
2023/07/27 14:13:51;;;;;;;4.93;2.30;;;;;;;;;;5034837;28;20053;-61
2023/07/27 14:16:19;;;;;;;4.65;2.28;;;;;;;;;;5038245;28;20570;-62
2023/07/27 14:18:46;;;;;;;4.15;1.92;;;;;;;;;;5043139;28;20061;-62
2023/07/27 14:21:13;;;;;;;4.03;2.50;;;;;;;;;;5041905;28;20057;-63
2023/07/27 14:23:39;;;;;;;3.75;2.15;;;;;;;;;;5044463;28;20056;-64
2023/07/27 14:26:06;;;;;;;5.85;2.67;;;;;;;;;;5045364;28;20510;-64
2023/07/27 14:28:32;;;;;;;3.10;2.13;;;;;;;;;;5042836;28;20108;-62
2023/07/27 14:30:59;;;;;;;7.57;2.30;;;;;;;;;;5037633;28;20058;-63
2023/07/27 14:33:38;;;;;;;4.50;2.55;;;;;;;;;;5035838;28;20058;-63
2023/07/27 14:36:05;;;;;;;7.05;2.78;;;;;;;;;;5041790;28;20147;-58
2023/07/27 14:38:31;;;;;;;5.00;3.00;;;;;;;;;;5047069;28;20060;-61
2023/07/27 14:40:58;;;;;;;5.60;2.78;;;;;;;;;;5041667;28;20076;-63
2023/07/27 14:43:26;;;;;;;4.80;2.47;;;;;;;;;;5042327;28;20899;-63
2023/07/27 14:45:52;;;;;;;5.55;3.58;;;;;;;;;;5045472;28;20049;-63